EWG3C EDDN-

Flight info

Callsign EWG3C
Flight time N/A
Altitude
Route
Aircraft A320

Departure

Time 2026-05-06 14:35
Airport Nuremberg Airport (EDDN)

Arrival

Time N/A
Airport -
Time Latitude Longitude Altitude Speed Heading
2026-05-06 14:28 49.49612 11.07941 1029 ft 0 kts 188°
2026-05-06 14:29 49.49580 11.07938 1026 ft 22 kts 178°
2026-05-06 14:29 49.49556 11.08045 1028 ft 27 kts 94°
2026-05-06 14:29 49.49536 11.08298 1029 ft 12 kts 92°
2026-05-06 14:29 49.49566 11.08348 1031 ft 6 kts 16°
2026-05-06 14:30 49.49593 11.08363 1033 ft 11 kts 25°
2026-05-06 14:30 49.49601 11.08559 1036 ft 35 kts 99°
2026-05-06 14:30 49.49563 11.08957 1039 ft 36 kts 98°
2026-05-06 14:30 49.49532 11.09290 1045 ft 27 kts 95°
2026-05-06 14:31 49.49585 11.09477 1049 ft 7 kts 53°
2026-05-06 14:31 49.49590 11.09487 1050 ft 0 kts 53°
2026-05-06 14:32 49.49636 11.09563 1052 ft 15 kts 33°
2026-05-06 14:32 49.49699 11.09528 1052 ft 9 kts 279°
2026-05-06 14:33 49.49701 11.09509 1052 ft 0 kts 278°
2026-05-06 14:33 49.49703 11.09488 1052 ft 12 kts 278°
2026-05-06 14:34 49.49766 11.08752 1040 ft 124 kts 279°
2026-05-06 14:34 49.49937 11.07025 1195 ft 192 kts 276°
2026-05-06 14:34 49.50130 11.04966 1425 ft 189 kts 272°
2026-05-06 14:34 49.49810 11.03266 1631 ft 154 kts 227°
2026-05-06 14:35 49.48906 11.02665 1759 ft 147 kts 174°
2026-05-06 14:35 49.48056 11.03441 1839 ft 148 kts 122°
2026-05-06 14:35 49.47842 11.04975 1819 ft 149 kts 91°
2026-05-06 14:35 49.47828 11.06565 1793 ft 148 kts 91°
2026-05-06 14:36 49.47807 11.08147 1875 ft 148 kts 91°
2026-05-06 14:36 49.47779 11.09745 1827 ft 149 kts 92°
2026-05-06 14:36 49.47765 11.11334 1892 ft 150 kts 87°
2026-05-06 14:36 49.48237 11.12723 1942 ft 152 kts 40°
2026-05-06 14:37 49.49198 11.13177 1840 ft 148 kts 343°
2026-05-06 14:37 49.49603 11.11863 1586 ft 153 kts 261°
2026-05-06 14:37 49.49630 11.10266 1261 ft 145 kts 278°
2026-05-06 14:37 49.49777 11.08781 1055 ft 131 kts 277°
2026-05-06 14:38 49.49899 11.07463 1103 ft 141 kts 277°
2026-05-06 14:38 49.50058 11.05896 1603 ft 151 kts 278°
2026-05-06 14:38 49.50629 11.04577 1694 ft 154 kts 332°
2026-05-06 14:38 49.51639 11.04642 1706 ft 154 kts 33°
2026-05-06 14:39 49.52068 11.06052 1669 ft 152 kts 96°
2026-05-06 14:39 49.51845 11.07630 1780 ft 152 kts 102°
2026-05-06 14:39 49.51640 11.09234 1831 ft 152 kts 102°
2026-05-06 14:39 49.51459 11.10850 1849 ft 157 kts 98°
2026-05-06 14:40 49.51352 11.12444 1890 ft 147 kts 114°
2026-05-06 14:40 49.50511 11.13259 1764 ft 155 kts 179°
2026-05-06 14:40 49.49633 11.12383 1579 ft 156 kts 245°
2026-05-06 14:40 49.49589 11.10818 1355 ft 141 kts 274°
2026-05-06 14:41 49.49720 11.09351 1108 ft 135 kts 278°
2026-05-06 14:41 49.49839 11.08021 1034 ft 120 kts 285°
2026-05-06 14:41 49.50003 11.06505 1386 ft 148 kts 277°
2026-05-06 14:41 49.50111 11.04932 2002 ft 149 kts 266°
2026-05-06 14:42 49.49700 11.03508 2271 ft 153 kts 223°
2026-05-06 14:42 49.48700 11.03163 2248 ft 154 kts 162°
2026-05-06 14:42 49.47967 11.04279 2213 ft 153 kts 110°
2026-05-06 14:42 49.47848 11.05916 2171 ft 156 kts 92°
2026-05-06 14:43 49.47843 11.07594 2070 ft 157 kts 91°
2026-05-06 14:43 49.47809 11.09274 2069 ft 156 kts 98°
2026-05-06 14:43 49.47685 11.10940 2173 ft 157 kts 97°
2026-05-06 14:43 49.47578 11.12623 2234 ft 157 kts 96°
2026-05-06 14:44 49.47474 11.14294 2311 ft 157 kts 96°
2026-05-06 14:44 49.47660 11.15932 2387 ft 158 kts 60°
2026-05-06 14:44 49.48482 11.16982 2371 ft 155 kts
2026-05-06 14:45 49.49235 11.14263 1685 ft 181 kts 272°
2026-05-06 14:45 49.49407 11.12550 1580 ft 149 kts 278°
2026-05-06 14:45 49.49548 11.11039 1328 ft 138 kts 275°
2026-05-06 14:45 49.49696 11.09572 1109 ft 138 kts 276°
2026-05-06 14:46 49.49834 11.08185 1034 ft 120 kts 277°
2026-05-06 14:46 49.49954 11.06728 1253 ft 163 kts 276°
2026-05-06 14:46 49.50114 11.04912 1780 ft 158 kts 280°
2026-05-06 14:46 49.50502 11.03491 1991 ft 148 kts 305°
2026-05-06 14:47 49.51335 11.02601 2059 ft 150 kts 346°
2026-05-06 14:47 49.52338 11.02938 1943 ft 154 kts 45°
2026-05-06 14:47 49.52718 11.04433 1902 ft 153 kts 86°
2026-05-06 14:47 49.52664 11.06087 1988 ft 155 kts 97°
2026-05-06 14:48 49.52498 11.07744 2056 ft 158 kts 102°
2026-05-06 14:48 49.52272 11.09399 2071 ft 158 kts 102°
2026-05-06 14:48 49.52054 11.11050 2046 ft 156 kts 101°
2026-05-06 14:48 49.51863 11.12689 2079 ft 155 kts 100°
2026-05-06 14:49 49.51686 11.14309 2108 ft 156 kts 99°
2026-05-06 14:49 49.51526 11.15969 2074 ft 156 kts 98°
2026-05-06 14:49 49.51360 11.17625 2071 ft 156 kts 99°
2026-05-06 14:49 49.51180 11.19285 2140 ft 157 kts 100°
2026-05-06 14:50 49.50979 11.20944 2217 ft 159 kts 102°
2026-05-06 14:50 49.50489 11.22406 2267 ft 156 kts 146°
2026-05-06 14:50 49.49491 11.22548 2265 ft 148 kts 211°
2026-05-06 14:50 49.48932 11.21282 2199 ft 148 kts 254°
2026-05-06 14:51 49.48838 11.19720 2071 ft 149 kts 272°
2026-05-06 14:51 49.48887 11.18155 1928 ft 148 kts 274°
2026-05-06 14:51 49.49021 11.16593 1889 ft 148 kts 278°
2026-05-06 14:51 49.49176 11.15018 1830 ft 149 kts 277°
2026-05-06 14:52 49.49314 11.13441 1680 ft 150 kts 277°
2026-05-06 14:52 49.49482 11.11831 1468 ft 146 kts 277°
2026-05-06 14:52 49.49618 11.10318 1255 ft 141 kts 277°
2026-05-06 14:52 49.49765 11.08878 1054 ft 128 kts 276°
2026-05-06 14:53 49.49894 11.07554 1095 ft 143 kts 276°
2026-05-06 14:53 49.50035 11.05985 1604 ft 153 kts 277°
2026-05-06 14:53 49.50041 11.04377 1880 ft 151 kts 252°
2026-05-06 14:53 49.49287 11.03366 2053 ft 153 kts 196°
2026-05-06 14:54 49.48410 11.02556 2059 ft 148 kts 232°
2026-05-06 14:54 49.48326 11.01085 1833 ft 149 kts 303°
2026-05-06 14:54 49.49236 11.00508 1663 ft 150 kts 13°
2026-05-06 14:54 49.50004 11.01570 1531 ft 159 kts 61°
2026-05-06 14:55 49.50253 11.03136 1389 ft 144 kts 89°
2026-05-06 14:55 49.50186 11.04571 1249 ft 128 kts 99°
2026-05-06 14:55 49.50057 11.05875 1087 ft 120 kts 100°
2026-05-06 14:55 49.49929 11.07130 1027 ft 117 kts 101°
2026-05-06 14:56 49.49776 11.08568 1434 ft 161 kts 99°
2026-05-06 14:56 49.49587 11.10290 1816 ft 162 kts 111°
2026-05-06 14:56 49.48796 11.11359 2027 ft 155 kts 171°
2026-05-06 14:56 49.47841 11.10897 2181 ft 147 kts 231°
2026-05-06 14:57 49.47618 11.09430 2311 ft 146 kts 277°
2026-05-06 14:57 49.47773 11.07871 2227 ft 146 kts 276°
2026-05-06 14:57 49.47909 11.06331 1995 ft 145 kts 277°
2026-05-06 14:57 49.48036 11.04786 1887 ft 145 kts 277°
2026-05-06 14:58 49.48189 11.03211 1881 ft 160 kts 279°
2026-05-06 14:58 49.48764 11.01771 1939 ft 165 kts 328°
2026-05-06 14:58 49.49836 11.01813 1862 ft 157 kts 30°
2026-05-06 14:58 49.50302 11.03176 1480 ft 150 kts 94°
2026-05-06 14:59 49.50178 11.04711 1220 ft 142 kts 98°
2026-05-06 14:59 49.50032 11.06180 1050 ft 132 kts 97°
2026-05-06 14:59 49.49897 11.07470 1058 ft 130 kts 96°
2026-05-06 14:59 49.49724 11.09078 1640 ft 158 kts 99°
2026-05-06 15:00 49.49576 11.10759 2108 ft 163 kts 88°
2026-05-06 15:00 49.49974 11.12353 2295 ft 162 kts 47°
2026-05-06 15:00 49.50962 11.12908 2330 ft 156 kts 349°
2026-05-06 15:00 49.51705 11.11858 2302 ft 150 kts 285°
2026-05-06 15:01 49.51840 11.10282 2311 ft 148 kts 272°
2026-05-06 15:01 49.51930 11.08712 2398 ft 147 kts 276°
2026-05-06 15:01 49.52022 11.07146 2399 ft 146 kts 273°
2026-05-06 15:01 49.52091 11.05588 2482 ft 145 kts 276°
2026-05-06 15:02 49.52221 11.04013 2271 ft 149 kts 277°
2026-05-06 15:02 49.52324 11.02442 2009 ft 146 kts 273°
2026-05-06 15:02 49.52100 11.00941 1716 ft 150 kts 232°
2026-05-06 15:02 49.51177 11.00266 1688 ft 155 kts 180°
2026-05-06 15:03 49.50283 11.01111 1631 ft 162 kts 107°
2026-05-06 15:03 49.50364 11.02781 1466 ft 160 kts 85°
2026-05-06 15:03 49.50202 11.04447 1264 ft 152 kts 97°
2026-05-06 15:03 49.50060 11.05958 1086 ft 133 kts 96°
2026-05-06 15:04 49.49929 11.07257 1026 ft 109 kts 97°
2026-05-06 15:04 49.49838 11.08190 1032 ft 53 kts 99°
2026-05-06 15:04 49.49790 11.08539 1038 ft 14 kts 126°
2026-05-06 15:04 49.49704 11.08554 1036 ft 10 kts 202°
2026-05-06 15:05 49.49675 11.08510 1036 ft 5 kts 231°
2026-05-06 15:05 49.49665 11.08491 1035 ft 0 kts 230°
2026-05-06 15:05 49.49662 11.08485 1035 ft 1 kts 231°
2026-05-06 15:05 49.49656 11.08472 1035 ft 2 kts 233°
2026-05-06 15:06 49.49636 11.08433 1034 ft 7 kts 233°
2026-05-06 15:06 49.49603 11.08375 1033 ft 8 kts 217°
2026-05-06 15:06 49.49547 11.08339 1031 ft 10 kts 206°
2026-05-06 15:06 49.49551 11.08252 1028 ft 9 kts 336°
2026-05-06 15:07 49.49585 11.08259 1031 ft 3 kts 11°
2026-05-06 15:07 49.49590 11.08261 1031 ft 0 kts 10°